createdAt,value
2018-07-09T00:02:00.077Z,98915.75
2018-07-09T00:04:29.336Z,98917.47
2018-07-09T00:06:58.556Z,98914.29
2018-07-09T00:09:27.812Z,98929.84
2018-07-09T00:11:57.052Z,98925.77
2018-07-09T00:14:26.309Z,98921.37
2018-07-09T00:16:55.556Z,98921.05
2018-07-09T00:19:24.701Z,98925.58
2018-07-09T00:21:54.009Z,98922.34
2018-07-09T00:24:23.212Z,98918.86
2018-07-09T00:26:52.499Z,98923.53
2018-07-09T00:29:21.793Z,98927.24
2018-07-09T00:31:51.057Z,98926.84
2018-07-09T00:34:20.438Z,98924.90
2018-07-09T00:36:49.648Z,98921.92
2018-07-09T00:39:18.896Z,98924.49
2018-07-09T00:41:48.282Z,98922.53
2018-07-09T00:44:17.613Z,98917.42
2018-07-09T00:46:46.844Z,98917.11
2018-07-09T00:49:16.229Z,98921.33
2018-07-09T00:51:45.667Z,98915.20
2018-07-09T00:54:15.010Z,98924.19
2018-07-09T00:56:44.201Z,98914.79
2018-07-09T00:59:13.524Z,98912.96
2018-07-09T01:01:42.718Z,98907.33
2018-07-09T01:04:11.987Z,98915.30
2018-07-09T01:06:41.169Z,98915.09
2018-07-09T01:09:10.444Z,98917.88
2018-07-09T01:11:45.517Z,98913.66
2018-07-09T01:14:14.734Z,98915.50
2018-07-09T01:16:43.928Z,98914.58
2018-07-09T01:19:13.200Z,98916.33
2018-07-09T01:21:42.409Z,98917.34
2018-07-09T01:24:11.694Z,98910.18
2018-07-09T01:26:42.101Z,98907.71
2018-07-09T01:29:11.364Z,98907.42
2018-07-09T01:31:40.624Z,98901.88
2018-07-09T01:34:09.929Z,98899.95
2018-07-09T01:36:39.140Z,98900.83
2018-07-09T01:39:08.528Z,98901.66
2018-07-09T01:41:37.740Z,98909.08
2018-07-09T01:44:06.902Z,98900.91
2018-07-09T01:46:36.155Z,98901.81
2018-07-09T01:49:05.369Z,98896.08
2018-07-09T01:51:34.601Z,98895.45
2018-07-09T01:54:03.869Z,98899.02
2018-07-09T01:56:33.149Z,98899.33
2018-07-09T01:59:02.305Z,98895.42
2018-07-09T02:01:31.596Z,98896.95
2018-07-09T02:04:00.809Z,98899.39
2018-07-09T02:06:30.068Z,98898.27
2018-07-09T02:08:59.308Z,98894.77
2018-07-09T02:11:28.553Z,98892.68
2018-07-09T02:13:57.723Z,98896.16
2018-07-09T02:16:27.145Z,98901.13
2018-07-09T02:18:56.285Z,98904.50
2018-07-09T02:21:25.572Z,98908.73
2018-07-09T02:23:55.149Z,98908.95
2018-07-09T02:26:24.433Z,98905.66
2018-07-09T02:28:53.608Z,98913.41
2018-07-09T02:31:22.884Z,98907.75
2018-07-09T02:33:52.087Z,98897.13
2018-07-09T02:36:21.349Z,98906.77
2018-07-09T02:38:50.640Z,98905.63
2018-07-09T02:41:19.866Z,98911.30
2018-07-09T02:43:49.126Z,98905.38
2018-07-09T02:46:18.298Z,98907.64
2018-07-09T02:48:47.524Z,98912.23
2018-07-09T02:51:16.709Z,98909.48
2018-07-09T02:53:45.925Z,98907.78
2018-07-09T02:56:15.081Z,98899.91
2018-07-09T02:58:44.313Z,98906.67
2018-07-09T03:01:13.580Z,98911.41
2018-07-09T03:03:42.906Z,98907.68
2018-07-09T03:06:12.077Z,98910.47
2018-07-09T03:08:41.304Z,98917.92
2018-07-09T03:11:10.487Z,98918.54
2018-07-09T03:13:39.693Z,98930.47
2018-07-09T03:16:08.928Z,98926.06
2018-07-09T03:18:38.239Z,98930.14
2018-07-09T03:21:07.628Z,98929.20
2018-07-09T03:23:36.889Z,98927.23
2018-07-09T03:26:06.061Z,98920.23
2018-07-09T03:28:35.281Z,98921.22
2018-07-09T03:31:04.560Z,98922.72
2018-07-09T03:33:33.804Z,98918.68
2018-07-09T03:36:02.987Z,98915.02
2018-07-09T03:38:32.200Z,98917.29
2018-07-09T03:41:01.493Z,98911.84
2018-07-09T03:43:30.659Z,98920.51
2018-07-09T03:45:59.902Z,98915.25
2018-07-09T03:48:29.128Z,98919.98
2018-07-09T03:50:58.378Z,98918.84
2018-07-09T03:53:27.540Z,98924.58
2018-07-09T03:55:56.773Z,98926.77
2018-07-09T03:58:26.040Z,98919.64
2018-07-09T04:00:55.282Z,98920.01
2018-07-09T04:03:24.432Z,98920.97
2018-07-09T04:05:53.777Z,98922.02
2018-07-09T04:08:22.922Z,98925.92
2018-07-09T04:10:52.148Z,98926.29
2018-07-09T04:13:21.302Z,98931.59
2018-07-09T04:15:50.539Z,98932.34
2018-07-09T04:18:23.097Z,98938.02
2018-07-09T04:20:53.276Z,98939.09
2018-07-09T04:23:22.532Z,98935.32
2018-07-09T04:25:51.905Z,98936.07
2018-07-09T04:28:21.477Z,98929.39
2018-07-09T04:30:51.555Z,98926.80
2018-07-09T04:33:20.845Z,98929.42
2018-07-09T04:35:50.059Z,98930.80
2018-07-09T04:38:19.252Z,98931.39
2018-07-09T04:40:48.469Z,98929.89
2018-07-09T04:43:17.738Z,98934.63
2018-07-09T04:45:47.201Z,98927.05
2018-07-09T04:48:16.325Z,98928.28
2018-07-09T04:50:45.461Z,98927.63
2018-07-09T04:53:14.629Z,98923.05
2018-07-09T04:55:43.793Z,98921.88
2018-07-09T04:58:12.927Z,98919.08
2018-07-09T05:00:42.124Z,98919.08
2018-07-09T05:03:11.238Z,98918.34
2018-07-09T05:05:40.553Z,98916.23
2018-07-09T05:08:09.612Z,98916.02
2018-07-09T05:10:38.951Z,98922.02
2018-07-09T05:13:08.146Z,98916.09
2018-07-09T05:15:37.288Z,98924.98
2018-07-09T05:18:06.694Z,98915.58
2018-07-09T05:20:35.907Z,98923.86
2018-07-09T05:23:06.268Z,98924.73
2018-07-09T05:25:35.731Z,98919.84
2018-07-09T05:28:04.969Z,98916.81
2018-07-09T05:30:34.133Z,98917.84
2018-07-09T05:33:03.317Z,98912.06
2018-07-09T05:35:32.496Z,98915.70
2018-07-09T05:38:01.875Z,98912.71
2018-07-09T05:40:31.365Z,98912.23
2018-07-09T05:43:00.796Z,98906.44
2018-07-09T05:45:30.088Z,98905.39
2018-07-09T05:47:59.510Z,98905.19
2018-07-09T05:50:28.765Z,98905.20
2018-07-09T05:52:58.183Z,98898.77
2018-07-09T05:55:27.405Z,98907.91
2018-07-09T05:57:56.608Z,98906.81
2018-07-09T06:00:26.044Z,98904.49
2018-07-09T06:02:55.220Z,98905.59
2018-07-09T06:05:24.417Z,98901.16
2018-07-09T06:07:53.669Z,98906.59
2018-07-09T06:10:22.852Z,98908.31
2018-07-09T06:12:52.053Z,98902.45
2018-07-09T06:15:21.197Z,98904.61
2018-07-09T06:17:50.670Z,98902.37
2018-07-09T06:20:19.924Z,98900.69
2018-07-09T06:22:49.415Z,98896.31
2018-07-09T06:25:18.656Z,98900.03
2018-07-09T06:27:47.823Z,98894.66
2018-07-09T06:30:17.096Z,98902.39
2018-07-09T06:32:46.258Z,98905.86
2018-07-09T06:35:15.437Z,98906.50
2018-07-09T06:37:44.582Z,98910.89
2018-07-09T06:40:13.805Z,98915.69
2018-07-09T06:42:42.965Z,98920.73
2018-07-09T06:45:12.191Z,98915.58
2018-07-09T06:47:41.377Z,98908.71
2018-07-09T06:50:10.718Z,98909.76
2018-07-09T06:52:39.954Z,98905.63
2018-07-09T06:55:09.377Z,98913.47
2018-07-09T06:57:38.555Z,98910.52
2018-07-09T07:00:07.773Z,98915.80
2018-07-09T07:02:36.977Z,98909.04
2018-07-09T07:05:06.481Z,98908.73
2018-07-09T07:07:35.697Z,98910.44
2018-07-09T07:10:04.969Z,98906.14
2018-07-09T07:12:34.186Z,98910.53
2018-07-09T07:15:03.591Z,98911.95
2018-07-09T07:17:32.768Z,98906.22
2018-07-09T07:20:02.371Z,98910.97
2018-07-09T07:22:31.569Z,98907.57
2018-07-09T07:25:00.785Z,98916.09
2018-07-09T07:27:30.275Z,98910.86
2018-07-09T07:29:59.577Z,98911.01
2018-07-09T07:32:28.766Z,98904.52
2018-07-09T07:34:57.987Z,98902.20
2018-07-09T07:37:27.129Z,98903.09
2018-07-09T07:39:56.328Z,98898.64
2018-07-09T07:42:25.487Z,98903.33
2018-07-09T07:44:54.722Z,98898.63
2018-07-09T07:47:23.874Z,98901.25
2018-07-09T07:49:55.385Z,98897.27
2018-07-09T07:52:24.909Z,98898.30
2018-07-09T07:54:54.304Z,98892.27
2018-07-09T07:57:25.361Z,98600.22
2018-07-09T07:59:54.773Z,98901.55
2018-07-09T08:02:24.035Z,98897.55
2018-07-09T08:04:53.579Z,98899.14
2018-07-09T08:07:22.773Z,98890.13
2018-07-09T08:09:53.013Z,98886.60
2018-07-09T08:14:52.015Z,98896.33
2018-07-09T08:17:21.411Z,98886.48
2018-07-09T08:19:50.687Z,98890.23
2018-07-09T08:22:19.947Z,98884.98
2018-07-09T08:24:49.417Z,98883.08
2018-07-09T08:27:18.665Z,98887.33
2018-07-09T08:29:48.705Z,98887.02
2018-07-09T08:32:18.003Z,98872.42
2018-07-09T08:34:47.287Z,98875.44
2018-07-09T08:37:16.520Z,98877.73
2018-07-09T08:39:45.918Z,98878.02
2018-07-09T08:42:15.210Z,98875.44
2018-07-09T08:44:44.677Z,98875.29
2018-07-09T08:47:14.436Z,98875.75
2018-07-09T08:49:43.733Z,98876.46
2018-07-09T08:52:12.946Z,98876.81
2018-07-09T08:54:42.154Z,98867.14
2018-07-09T08:57:11.306Z,98874.26
2018-07-09T08:59:40.550Z,98870.14
2018-07-09T09:02:09.925Z,98867.41
2018-07-09T09:04:39.404Z,98868.09
2018-07-09T09:07:08.634Z,98750.58
2018-07-09T09:09:37.817Z,98852.48
2018-07-09T09:12:07.359Z,98858.97
2018-07-09T09:14:36.728Z,98851.19
2018-07-09T09:17:06.012Z,98855.29
2018-07-09T09:19:35.238Z,98854.03
2018-07-09T09:22:04.507Z,98855.28
2018-07-09T09:24:33.910Z,98855.26
2018-07-09T09:27:03.144Z,98859.45
2018-07-09T09:29:32.500Z,98851.86
2018-07-09T09:32:02.076Z,98853.85
2018-07-09T09:34:31.521Z,98856.33
2018-07-09T09:37:01.038Z,98849.20
2018-07-09T09:39:30.277Z,98844.75
2018-07-09T09:42:00.953Z,98845.72
2018-07-09T09:44:30.346Z,98840.39
2018-07-09T09:46:59.614Z,98797.25
2018-07-09T09:49:29.551Z,98842.06
2018-07-09T09:51:58.888Z,98835.68
2018-07-09T09:54:28.146Z,98833.38
2018-07-09T09:56:57.552Z,98835.65
2018-07-09T09:59:26.965Z,98826.80
2018-07-09T10:01:56.402Z,98835.17
2018-07-09T10:04:25.652Z,98824.55
2018-07-09T10:06:54.897Z,98834.86
2018-07-09T10:09:24.119Z,98826.96
2018-07-09T10:11:53.393Z,98821.38
2018-07-09T10:14:22.636Z,98823.60
2018-07-09T10:16:51.937Z,98824.02
2018-07-09T10:19:21.117Z,98816.29
2018-07-09T10:21:50.361Z,98812.50
2018-07-09T10:24:19.702Z,98814.64
2018-07-09T10:26:49.058Z,98811.23
2018-07-09T10:29:18.190Z,98812.54
2018-07-09T10:31:47.564Z,98805.27
2018-07-09T10:34:16.813Z,98804.45
2018-07-09T10:36:46.001Z,98809.55
2018-07-09T10:39:15.217Z,98796.95
2018-07-09T10:41:44.454Z,98798.55
2018-07-09T10:44:13.701Z,98792.13
2018-07-09T10:46:42.947Z,98792.92
2018-07-09T10:49:12.334Z,98789.11
2018-07-09T10:51:41.647Z,98790.76
2018-07-09T10:54:10.809Z,98790.22
2018-07-09T10:56:40.043Z,98781.48
2018-07-09T10:59:09.430Z,98785.07
2018-07-09T11:01:38.749Z,98787.78
2018-07-09T11:04:08.065Z,98782.61
2018-07-09T11:06:37.297Z,98782.36
2018-07-09T11:09:07.958Z,98791.30
2018-07-09T11:11:37.652Z,98784.52
2018-07-09T11:14:06.859Z,98783.98
2018-07-09T11:16:36.183Z,98776.59
2018-07-09T11:19:05.364Z,98784.28
2018-07-09T11:21:34.714Z,98788.83
2018-07-09T11:24:03.967Z,98778.50
2018-07-09T11:26:33.192Z,98778.27
2018-07-09T11:29:02.365Z,98761.95
2018-07-09T11:31:32.648Z,98769.24
2018-07-09T11:34:01.966Z,98759.22
2018-07-09T11:36:31.265Z,98764.84
2018-07-09T11:39:00.449Z,98758.28
2018-07-09T11:41:29.680Z,98764.89
2018-07-09T11:43:59.105Z,98763.33
2018-07-09T11:46:28.398Z,98755.94
2018-07-09T11:48:57.706Z,98755.91
2018-07-09T11:51:26.985Z,98760.52
2018-07-09T11:53:56.268Z,98749.52
2018-07-09T11:56:25.504Z,98745.59
2018-07-09T11:58:54.905Z,98748.97
2018-07-09T12:01:24.187Z,98749.97
2018-07-09T12:03:53.551Z,98753.28
2018-07-09T12:06:22.805Z,98740.63
2018-07-09T12:08:52.194Z,98739.70
2018-07-09T12:11:21.412Z,98738.38
2018-07-09T12:13:50.553Z,98735.87
2018-07-09T12:16:19.840Z,98744.78
2018-07-09T12:18:49.178Z,98740.91
2018-07-09T12:21:18.655Z,98737.95
2018-07-09T12:23:47.852Z,98732.83
2018-07-09T12:26:17.100Z,98722.56
2018-07-09T12:28:46.376Z,98724.22
2018-07-09T12:31:15.743Z,98477.67
2018-07-09T12:33:44.980Z,98712.91
2018-07-09T12:36:14.341Z,98705.02
2018-07-09T12:38:43.801Z,98707.92
2018-07-09T12:41:13.104Z,98715.65
2018-07-09T12:43:42.511Z,98707.63
2018-07-09T12:46:11.721Z,98702.98
2018-07-09T12:48:41.228Z,98700.80
2018-07-09T12:51:10.591Z,98708.41
2018-07-09T12:53:39.889Z,98717.40
2018-07-09T12:56:09.208Z,98712.19
2018-07-09T12:58:38.423Z,98719.13
2018-07-09T13:01:07.877Z,98716.74
2018-07-09T13:03:37.137Z,98714.35
2018-07-09T13:06:06.523Z,98713.98
2018-07-09T13:08:35.726Z,98704.89
2018-07-09T13:11:05.098Z,98705.91
2018-07-09T13:13:35.140Z,98702.30
2018-07-09T13:16:04.456Z,98706.67
2018-07-09T13:18:33.819Z,98701.78
2018-07-09T13:21:04.050Z,98688.39
2018-07-09T13:23:33.806Z,98690.10
2018-07-09T13:26:03.070Z,98685.09
2018-07-09T13:28:32.353Z,98683.56
2018-07-09T13:31:01.710Z,98683.45
2018-07-09T13:33:31.109Z,98690.48
2018-07-09T13:36:00.556Z,98690.81
2018-07-09T13:38:30.435Z,98698.98
2018-07-09T13:40:59.597Z,98687.67
2018-07-09T13:43:29.356Z,98693.61
2018-07-09T13:45:59.097Z,98692.97
2018-07-09T13:48:28.489Z,98695.11
2018-07-09T13:50:57.945Z,98691.05
2018-07-09T13:53:27.506Z,98691.41
2018-07-09T13:55:57.036Z,98688.43
2018-07-09T13:58:26.506Z,98690.81
2018-07-09T14:00:55.981Z,98689.59
2018-07-09T14:03:25.252Z,98692.96
2018-07-09T14:05:54.725Z,98691.34
2018-07-09T14:08:24.111Z,98692.73
2018-07-09T14:10:53.533Z,98698.97
2018-07-09T14:13:22.908Z,98699.06
2018-07-09T14:15:52.154Z,98695.41
2018-07-09T14:18:21.524Z,98697.81
2018-07-09T14:20:50.924Z,98696.95
2018-07-09T14:23:20.178Z,98695.49
2018-07-09T14:25:49.489Z,98699.45
2018-07-09T14:28:19.154Z,98692.30
2018-07-09T14:30:50.876Z,98688.59
2018-07-09T14:33:20.134Z,98688.15
2018-07-09T14:35:49.352Z,98697.76
2018-07-09T14:38:18.580Z,98695.94
2018-07-09T14:40:47.865Z,98693.53
2018-07-09T14:43:17.140Z,98692.39
2018-07-09T14:45:57.509Z,98683.86
2018-07-09T14:48:27.044Z,98688.30
2018-07-09T14:50:57.539Z,98680.41
2018-07-09T14:53:28.212Z,98681.75
2018-07-09T14:55:57.345Z,98676.65
2018-07-09T14:58:26.549Z,98684.27
2018-07-09T15:00:56.723Z,98688.53
2018-07-09T15:03:25.999Z,98687.19
2018-07-09T15:05:55.249Z,98678.85
2018-07-09T15:08:25.158Z,98674.90
2018-07-09T15:10:54.297Z,98671.55
2018-07-09T15:13:23.722Z,98675.20
2018-07-09T15:15:53.076Z,98672.38
2018-07-09T15:18:22.293Z,98673.67
2018-07-09T15:20:51.660Z,98667.31
2018-07-09T15:23:21.147Z,98664.77
2018-07-09T15:25:50.429Z,98661.73
2018-07-09T15:28:19.609Z,98658.77
2018-07-09T15:30:48.968Z,98662.41
2018-07-09T15:33:18.227Z,98661.56
2018-07-09T15:35:47.474Z,98661.45
2018-07-09T15:38:16.801Z,98656.98
2018-07-09T15:40:46.109Z,98661.84
2018-07-09T15:43:15.527Z,98654.69
2018-07-09T15:45:44.657Z,98654.67
2018-07-09T15:48:13.906Z,98650.52
2018-07-09T15:50:43.155Z,98652.31
2018-07-09T15:53:12.329Z,98648.56
2018-07-09T15:55:41.461Z,98653.82
2018-07-09T15:58:10.797Z,98649.68
2018-07-09T16:00:40.041Z,98646.22
2018-07-09T16:03:09.306Z,98634.49
2018-07-09T16:05:41.714Z,98633.72
2018-07-09T16:08:10.967Z,98633.68
2018-07-09T16:10:40.364Z,98638.14
2018-07-09T16:13:09.874Z,98637.27
2018-07-09T16:15:39.106Z,98633.23
2018-07-09T16:18:08.416Z,98631.39
2018-07-09T16:20:37.673Z,98638.34
2018-07-09T16:23:06.886Z,98631.51
2018-07-09T16:25:36.125Z,98628.36
2018-07-09T16:28:05.317Z,98626.04
2018-07-09T16:30:34.458Z,98622.33
2018-07-09T16:33:03.876Z,98617.02
2018-07-09T16:35:33.004Z,98616.33
2018-07-09T16:38:02.263Z,98622.33
2018-07-09T16:40:32.177Z,98614.96
2018-07-09T16:43:02.167Z,98611.69
2018-07-09T16:45:31.360Z,98610.63
2018-07-09T16:48:00.679Z,98611.86
2018-07-09T16:50:30.064Z,98609.64
2018-07-09T16:52:59.402Z,98612.16
2018-07-09T16:55:28.682Z,98606.14
2018-07-09T16:57:57.982Z,98615.83
2018-07-09T17:00:27.230Z,98618.59
2018-07-09T17:02:56.581Z,98610.17
2018-07-09T17:05:26.254Z,98609.82
2018-07-09T17:07:55.716Z,98611.63
2018-07-09T17:10:25.157Z,98611.22
2018-07-09T17:12:54.514Z,98610.33
2018-07-09T17:15:23.758Z,98611.22
2018-07-09T17:17:53.009Z,98617.12
2018-07-09T17:20:23.333Z,98615.55
2018-07-09T17:22:52.942Z,98615.42
2018-07-09T17:25:22.197Z,98613.61
2018-07-09T17:27:51.535Z,98609.39
2018-07-09T17:30:21.074Z,98609.95
2018-07-09T17:32:51.566Z,98613.45
2018-07-09T17:35:20.901Z,98608.39
2018-07-09T17:37:50.289Z,98603.11
2018-07-09T17:40:19.989Z,98595.29
2018-07-09T17:42:51.304Z,98597.38
2018-07-09T17:45:21.118Z,98600.00
2018-07-09T17:48:13.420Z,98598.71
2018-07-09T17:51:06.251Z,98592.77
2018-07-09T17:53:58.247Z,98594.61
2018-07-09T17:56:27.441Z,98592.55
2018-07-09T17:58:56.950Z,98593.70
2018-07-09T18:01:26.732Z,98600.08
2018-07-09T18:03:56.372Z,98595.20
2018-07-09T18:06:26.561Z,98593.45
2018-07-09T18:08:55.837Z,98539.70
2018-07-09T18:11:26.149Z,98583.84
2018-07-09T18:13:55.513Z,98584.81
2018-07-09T18:16:24.994Z,98579.68
2018-07-09T18:18:54.249Z,98580.39
2018-07-09T18:21:23.666Z,98580.19
2018-07-09T18:23:53.145Z,98581.02
2018-07-09T18:26:22.322Z,98586.02
2018-07-09T18:28:51.576Z,98583.42
2018-07-09T18:31:20.925Z,98584.72
2018-07-09T18:33:50.217Z,98577.05
2018-07-09T18:36:19.766Z,98567.47
2018-07-09T18:38:49.188Z,98566.49
2018-07-09T18:41:18.526Z,98564.25
2018-07-09T18:43:47.827Z,98564.47
2018-07-09T18:46:17.121Z,98563.17
2018-07-09T18:48:46.474Z,98555.95
2018-07-09T18:51:15.688Z,98558.27
2018-07-09T18:53:45.053Z,98561.16
2018-07-09T18:56:14.329Z,98558.34
2018-07-09T18:58:43.557Z,98552.65
2018-07-09T19:01:12.820Z,98552.03
2018-07-09T19:03:42.167Z,98549.24
2018-07-09T19:07:24.762Z,98551.07
2018-07-09T19:09:54.361Z,98550.95
2018-07-09T19:12:24.190Z,98554.34
2018-07-09T19:14:53.718Z,98551.91
2018-07-09T19:18:02.168Z,98547.48
2018-07-09T19:20:42.707Z,98559.03
2018-07-09T19:23:11.361Z,98555.81
2018-07-09T19:25:39.749Z,98553.42
2018-07-09T19:28:08.304Z,98547.84
2018-07-09T19:30:36.355Z,98551.77
2018-07-09T19:33:04.293Z,98545.70
2018-07-09T19:38:00.455Z,98551.44
2018-07-09T19:40:28.640Z,98551.36
2018-07-09T19:42:56.852Z,98551.30
2018-07-09T19:45:24.830Z,98553.66
2018-07-09T19:47:52.967Z,98545.03
2018-07-09T19:50:20.929Z,98550.23
2018-07-09T19:52:48.890Z,98548.56
2018-07-09T19:55:16.881Z,98544.27
2018-07-09T19:57:44.857Z,98550.47
2018-07-09T20:00:12.829Z,98548.58
2018-07-09T20:02:40.787Z,98553.79
2018-07-09T20:05:08.823Z,98548.41
2018-07-09T20:07:36.740Z,98541.67
2018-07-09T20:10:10.121Z,98548.11
2018-07-09T20:12:43.413Z,98538.73
2018-07-09T20:15:16.737Z,98541.65
2018-07-09T20:17:44.633Z,98536.49
2018-07-09T20:20:12.638Z,98539.58
2018-07-09T20:22:40.612Z,98542.90
2018-07-09T20:25:08.609Z,98538.88
2018-07-09T20:27:36.545Z,98536.39
2018-07-09T20:30:04.541Z,98536.76
2018-07-09T20:32:32.506Z,98535.41
2018-07-09T20:35:00.493Z,98532.83
2018-07-09T20:37:28.454Z,98532.55
2018-07-09T20:39:56.664Z,98536.59
2018-07-09T20:42:24.658Z,98533.92
2018-07-09T20:44:52.889Z,98538.22
2018-07-09T20:47:20.829Z,98539.63
2018-07-09T20:49:48.868Z,98542.05
2018-07-09T20:52:16.841Z,98539.30
2018-07-09T20:54:44.789Z,98537.53
2018-07-09T20:57:12.995Z,98540.87
2018-07-09T20:59:40.947Z,98537.80
2018-07-09T21:02:08.990Z,98539.55
2018-07-09T21:04:36.942Z,98536.05
2018-07-09T21:07:04.955Z,98534.73
2018-07-09T21:09:33.725Z,98538.22
2018-07-09T21:12:09.096Z,98537.64
2018-07-09T21:14:37.180Z,98537.44
2018-07-09T21:17:05.165Z,98536.69
2018-07-09T21:19:33.136Z,98537.01
2018-07-09T21:22:01.262Z,98531.36
2018-07-09T21:24:29.250Z,98527.31
2018-07-09T21:26:57.277Z,98519.97
2018-07-09T21:29:25.248Z,98519.70
2018-07-09T21:31:53.239Z,98520.67
2018-07-09T21:34:21.166Z,98522.01
2018-07-09T21:36:50.059Z,98517.96
2018-07-09T21:39:18.017Z,98520.84
2018-07-09T21:41:46.125Z,98520.13
2018-07-09T21:44:14.069Z,98518.83
2018-07-09T21:46:42.046Z,98518.42
2018-07-09T21:49:09.981Z,98528.82
2018-07-09T21:51:37.981Z,98519.77
2018-07-09T21:54:05.913Z,98518.34
2018-07-09T21:56:33.978Z,98515.28
2018-07-09T21:59:01.943Z,98519.22
2018-07-09T22:01:30.090Z,98525.56
2018-07-09T22:03:58.101Z,98521.29
2018-07-09T22:06:26.270Z,98514.48
2018-07-09T22:08:54.250Z,98512.03
2018-07-09T22:11:22.669Z,98510.89
2018-07-09T22:13:50.817Z,98450.41
2018-07-09T22:16:18.840Z,98509.53
2018-07-09T22:18:46.781Z,98506.92
2018-07-09T22:21:14.949Z,98509.93
2018-07-09T22:23:42.940Z,98509.41
2018-07-09T22:26:10.940Z,98507.59
2018-07-09T22:28:38.949Z,98508.23
2018-07-09T22:31:08.234Z,98511.05
2018-07-09T22:33:37.546Z,98506.17
2018-07-09T22:36:06.857Z,98507.19
2018-07-09T22:38:36.099Z,98304.73
2018-07-09T22:41:05.322Z,98506.34
2018-07-09T22:43:45.994Z,98509.72
2018-07-09T22:46:15.281Z,98505.80
2018-07-09T22:48:44.742Z,98510.07
2018-07-09T22:51:14.111Z,98507.03
2018-07-09T22:53:43.437Z,98510.61
2018-07-09T22:56:13.986Z,98512.72
2018-07-09T22:58:43.869Z,98519.14
2018-07-09T23:01:13.082Z,98516.95
2018-07-09T23:03:42.318Z,98518.29
2018-07-09T23:06:11.612Z,98515.27
2018-07-09T23:08:40.921Z,98508.58
2018-07-09T23:11:37.425Z,98510.59
2018-07-09T23:16:48.213Z,98504.79
2018-07-09T23:20:28.477Z,98509.73
2018-07-09T23:22:56.448Z,98510.69
2018-07-09T23:25:24.435Z,98509.80
2018-07-09T23:27:52.453Z,98499.66
2018-07-09T23:30:20.461Z,98502.95
2018-07-09T23:32:48.403Z,98500.20
2018-07-09T23:35:16.383Z,98503.30
2018-07-09T23:37:44.432Z,98504.58
2018-07-09T23:40:12.471Z,98504.69
2018-07-09T23:42:40.416Z,98498.80
2018-07-09T23:45:08.400Z,98497.67
2018-07-09T23:47:36.342Z,98500.59
2018-07-09T23:50:04.328Z,98491.61
2018-07-09T23:52:32.277Z,98491.56
2018-07-09T23:55:00.331Z,98481.97
2018-07-09T23:59:50.488Z,98481.36
